createdAt,value
2023-01-22T00:01:18.972Z,9.55
2023-01-22T00:03:47.348Z,10.23
2023-01-22T00:06:15.961Z,14.68
2023-01-22T00:08:43.803Z,10.25
2023-01-22T00:11:12.128Z,9.77
2023-01-22T00:13:40.486Z,8.30
2023-01-22T00:16:10.488Z,7.70
2023-01-22T00:18:38.444Z,7.38
2023-01-22T00:21:06.621Z,7.72
2023-01-22T00:23:34.524Z,6.90
2023-01-22T00:26:04.509Z,7.28
2023-01-22T00:28:32.551Z,5.93
2023-01-22T00:31:03.167Z,6.18
2023-01-22T00:33:32.056Z,6.18
2023-01-22T00:36:11.792Z,6.50
2023-01-22T00:38:39.695Z,6.93
2023-01-22T00:41:09.650Z,6.90
2023-01-22T00:43:41.305Z,8.05
2023-01-22T00:46:11.543Z,8.60
2023-01-22T00:48:39.543Z,7.78
2023-01-22T00:51:13.150Z,8.05
2023-01-22T00:53:41.618Z,7.90
2023-01-22T00:56:11.125Z,7.97
2023-01-22T00:58:39.111Z,8.13
2023-01-22T01:01:07.753Z,8.43
2023-01-22T01:03:36.848Z,8.40
2023-01-22T01:06:20.139Z,9.13
2023-01-22T01:08:49.061Z,7.47
2023-01-22T01:11:22.585Z,7.72
2023-01-22T01:13:51.530Z,8.48
2023-01-22T01:16:24.113Z,7.75
2023-01-22T01:18:52.183Z,6.97
2023-01-22T01:21:20.651Z,7.07
2023-01-22T01:23:49.761Z,6.80
2023-01-22T01:26:18.506Z,7.65
2023-01-22T01:28:46.368Z,8.38
2023-01-22T01:31:17.024Z,7.38
2023-01-22T01:33:46.272Z,6.97
2023-01-22T01:36:35.288Z,7.38
2023-01-22T01:39:10.014Z,7.47
2023-01-22T01:41:37.883Z,6.88
2023-01-22T01:44:16.485Z,8.10
2023-01-22T01:46:52.301Z,8.60
2023-01-22T01:49:44.698Z,7.55
2023-01-22T01:52:15.080Z,8.15
2023-01-22T01:54:48.050Z,7.57
2023-01-22T01:57:27.227Z,7.57
2023-01-22T01:59:56.508Z,8.93
2023-01-22T02:02:25.051Z,9.02
2023-01-22T02:04:54.829Z,9.23
2023-01-22T02:07:22.803Z,7.95
2023-01-22T02:09:51.263Z,8.00
2023-01-22T02:12:19.219Z,7.32
2023-01-22T02:14:50.029Z,8.07
2023-01-22T02:17:22.494Z,8.38
2023-01-22T02:19:52.151Z,7.90
2023-01-22T02:22:23.263Z,8.10
2023-01-22T02:24:51.872Z,8.00
2023-01-22T02:27:19.944Z,7.72
2023-01-22T02:29:49.274Z,8.18
2023-01-22T02:32:17.101Z,8.07
2023-01-22T02:34:45.118Z,7.63
2023-01-22T02:37:13.034Z,7.07
2023-01-22T02:39:40.974Z,6.90
2023-01-22T02:42:09.513Z,6.75
2023-01-22T02:44:38.620Z,6.15
2023-01-22T02:47:07.430Z,7.68
2023-01-22T02:49:35.367Z,7.50
2023-01-22T02:52:03.319Z,7.90
2023-01-22T02:54:31.976Z,7.60
2023-01-22T02:56:59.858Z,7.90
2023-01-22T02:59:27.941Z,8.43
2023-01-22T03:01:57.325Z,8.45
2023-01-22T03:04:27.404Z,8.45
2023-01-22T03:06:55.431Z,7.95
2023-01-22T03:09:25.387Z,7.85
2023-01-22T03:11:53.319Z,8.63
2023-01-22T03:14:45.183Z,7.75
2023-01-22T03:17:31.359Z,8.48
2023-01-22T03:20:19.065Z,8.25
2023-01-22T03:22:48.552Z,7.97
2023-01-22T03:25:16.476Z,8.55
2023-01-22T03:28:04.093Z,7.88
2023-01-22T03:30:34.933Z,6.65
2023-01-22T03:33:02.888Z,6.80
2023-01-22T03:35:31.202Z,7.30
2023-01-22T03:38:13.252Z,6.40
2023-01-22T03:40:41.207Z,6.70
2023-01-22T03:43:09.964Z,7.65
2023-01-22T03:45:38.173Z,7.03
2023-01-22T03:48:06.930Z,7.13
2023-01-22T03:50:39.317Z,6.00
2023-01-22T03:53:07.173Z,6.85
2023-01-22T03:55:35.003Z,6.05
2023-01-22T03:58:03.826Z,6.55
2023-01-22T04:00:31.903Z,6.07
2023-01-22T04:03:00.528Z,6.65
2023-01-22T04:05:33.319Z,5.97
2023-01-22T04:08:01.501Z,6.93
2023-01-22T04:10:31.810Z,6.95
2023-01-22T04:13:02.350Z,6.38
2023-01-22T04:15:30.187Z,6.43
2023-01-22T04:17:59.242Z,5.80
2023-01-22T04:20:35.959Z,5.88
2023-01-22T04:23:21.184Z,6.30
2023-01-22T04:25:50.458Z,6.32
2023-01-22T04:28:19.034Z,7.20
2023-01-22T04:30:54.973Z,6.72
2023-01-22T04:33:36.990Z,6.57
2023-01-22T04:36:16.472Z,6.55
2023-01-22T04:38:44.847Z,6.43
2023-01-22T04:41:12.662Z,6.10
2023-01-22T04:43:40.498Z,7.10
2023-01-22T04:46:08.564Z,7.57
2023-01-22T04:48:37.339Z,7.65
2023-01-22T04:51:05.966Z,7.28
2023-01-22T04:53:34.477Z,7.90
2023-01-22T04:56:02.367Z,6.63
2023-01-22T04:58:30.627Z,7.55
2023-01-22T05:01:00.424Z,6.40
2023-01-22T05:03:28.551Z,6.07
2023-01-22T05:05:57.255Z,5.68
2023-01-22T05:08:25.218Z,5.72
2023-01-22T05:10:53.159Z,6.47
2023-01-22T05:13:26.391Z,5.33
2023-01-22T05:15:54.354Z,6.15
2023-01-22T05:18:24.190Z,5.72
2023-01-22T05:20:53.049Z,5.75
2023-01-22T05:23:22.975Z,5.97
2023-01-22T05:25:51.256Z,5.80
2023-01-22T05:28:25.391Z,5.65
2023-01-22T05:31:12.311Z,6.15
2023-01-22T05:33:50.432Z,5.63
2023-01-22T05:36:18.431Z,5.88
2023-01-22T05:38:46.762Z,6.07
2023-01-22T05:41:15.469Z,5.72
2023-01-22T05:43:43.398Z,6.82
2023-01-22T05:46:16.871Z,6.53
2023-01-22T05:49:05.205Z,6.32
2023-01-22T05:51:34.912Z,5.90
2023-01-22T05:54:02.973Z,6.25
2023-01-22T05:56:33.604Z,5.75
2023-01-22T05:59:01.619Z,6.07
2023-01-22T06:01:30.279Z,6.07
2023-01-22T06:03:59.954Z,5.50
2023-01-22T06:06:28.034Z,6.32
2023-01-22T06:08:56.603Z,6.03
2023-01-22T06:11:27.835Z,6.10
2023-01-22T06:13:55.671Z,6.38
2023-01-22T06:16:24.148Z,5.60
2023-01-22T06:19:13.906Z,5.93
2023-01-22T06:21:51.194Z,5.72
2023-01-22T06:24:22.379Z,5.80
2023-01-22T06:26:50.237Z,5.05
2023-01-22T06:29:19.826Z,5.25
2023-01-22T06:31:49.284Z,4.32
2023-01-22T06:34:19.818Z,4.53
2023-01-22T06:36:47.912Z,6.47
2023-01-22T06:39:16.276Z,5.00
2023-01-22T06:41:50.549Z,4.90
2023-01-22T06:44:19.172Z,5.40
2023-01-22T06:46:47.820Z,4.10
2023-01-22T06:49:26.974Z,5.22
2023-01-22T06:51:55.762Z,4.10
2023-01-22T06:54:24.284Z,4.05
2023-01-22T06:56:52.131Z,4.03
2023-01-22T06:59:23.135Z,4.63
2023-01-22T07:01:51.097Z,4.05
2023-01-22T07:04:19.255Z,4.72
2023-01-22T07:06:47.092Z,3.75
2023-01-22T07:09:14.935Z,3.83
2023-01-22T07:11:43.351Z,4.20
2023-01-22T07:14:11.269Z,5.03
2023-01-22T07:16:39.199Z,4.85
2023-01-22T07:19:07.106Z,4.95
2023-01-22T07:21:34.962Z,5.07
2023-01-22T07:24:02.867Z,4.97
2023-01-22T07:26:30.605Z,4.63
2023-01-22T07:28:58.444Z,4.32
2023-01-22T07:31:26.450Z,4.72
2023-01-22T07:33:54.513Z,4.63
2023-01-22T07:36:23.089Z,4.53
2023-01-22T07:38:50.956Z,5.28
2023-01-22T07:41:25.778Z,4.45
2023-01-22T07:43:56.281Z,3.97
2023-01-22T07:46:25.743Z,4.57
2023-01-22T07:48:54.091Z,5.18
2023-01-22T07:51:22.060Z,5.28
2023-01-22T07:53:50.092Z,3.95
2023-01-22T07:56:19.368Z,4.95
2023-01-22T07:58:47.357Z,4.55
2023-01-22T08:01:16.005Z,3.80
2023-01-22T08:03:45.273Z,4.72
2023-01-22T08:06:17.950Z,5.35
2023-01-22T08:08:46.896Z,4.60
2023-01-22T08:11:15.135Z,4.60
2023-01-22T08:13:43.070Z,4.22
2023-01-22T08:16:11.035Z,6.50
2023-01-22T08:18:38.967Z,7.20
2023-01-22T08:21:07.149Z,6.22
2023-01-22T08:23:35.301Z,5.75
2023-01-22T08:26:04.465Z,17.27
2023-01-22T08:28:32.526Z,8.77
2023-01-22T08:31:02.288Z,5.80
2023-01-22T08:33:33.637Z,6.88
2023-01-22T08:36:01.621Z,6.05
2023-01-22T08:38:29.798Z,5.50
2023-01-22T08:40:57.722Z,6.63
2023-01-22T08:43:25.686Z,6.38
2023-01-22T08:45:53.724Z,3.40
2023-01-22T08:48:21.675Z,3.10
2023-01-22T08:50:52.378Z,3.30
2023-01-22T08:53:20.372Z,1.95
2023-01-22T08:55:51.309Z,1.63
2023-01-22T08:58:22.211Z,1.38
2023-01-22T09:00:50.391Z,1.30
2023-01-22T09:03:18.584Z,1.30
2023-01-22T09:05:46.503Z,1.20
2023-01-22T09:08:14.738Z,1.63
2023-01-22T09:10:44.073Z,1.50
2023-01-22T09:13:12.081Z,1.65
2023-01-22T09:15:41.107Z,1.80
2023-01-22T09:18:09.301Z,1.33
2023-01-22T09:20:37.118Z,1.65
2023-01-22T09:23:05.263Z,1.88
2023-01-22T09:25:33.405Z,2.10
2023-01-22T09:28:01.967Z,1.08
2023-01-22T09:30:30.608Z,1.60
2023-01-22T09:32:58.577Z,1.20
2023-01-22T09:35:27.704Z,1.17
2023-01-22T09:37:55.927Z,1.65
2023-01-22T09:40:43.427Z,1.25
2023-01-22T09:43:39.223Z,1.85
2023-01-22T09:46:18.403Z,1.60
2023-01-22T09:48:51.209Z,0.70
2023-01-22T09:51:19.777Z,1.70
2023-01-22T09:53:54.477Z,1.67
2023-01-22T09:56:30.381Z,1.27
2023-01-22T09:59:01.993Z,1.30
2023-01-22T10:01:30.570Z,1.45
2023-01-22T10:04:03.483Z,1.40
2023-01-22T10:06:31.705Z,1.27
2023-01-22T10:09:11.641Z,1.73
2023-01-22T10:11:40.285Z,8.52
2023-01-22T10:14:12.914Z,2.45
2023-01-22T10:16:41.457Z,2.13
2023-01-22T10:19:28.235Z,1.77
2023-01-22T10:22:02.768Z,1.58
2023-01-22T10:24:30.996Z,2.33
2023-01-22T10:27:11.611Z,1.70
2023-01-22T10:29:39.704Z,1.88
2023-01-22T10:32:23.138Z,1.60
2023-01-22T10:35:07.890Z,2.10
2023-01-22T10:37:49.157Z,1.42
2023-01-22T10:40:34.157Z,1.70
2023-01-22T10:43:06.253Z,1.52
2023-01-22T10:45:34.282Z,1.70
2023-01-22T10:48:16.607Z,1.70
2023-01-22T10:50:45.941Z,2.00
2023-01-22T10:53:36.444Z,1.45
2023-01-22T10:56:12.466Z,1.70
2023-01-22T10:58:48.735Z,1.38
2023-01-22T11:01:35.990Z,1.80
2023-01-22T11:04:25.839Z,1.13
2023-01-22T11:07:18.364Z,1.40
2023-01-22T11:09:56.490Z,1.50
2023-01-22T11:12:37.332Z,2.13
2023-01-22T11:15:09.801Z,1.80
2023-01-22T11:17:43.419Z,4.00
2023-01-22T11:20:32.957Z,4.63
2023-01-22T11:23:06.107Z,2.72
2023-01-22T11:25:42.290Z,1.73
2023-01-22T11:28:46.176Z,1.88
2023-01-22T11:31:23.390Z,1.73
2023-01-22T11:34:12.772Z,1.50
2023-01-22T11:37:08.559Z,1.63
2023-01-22T11:39:43.995Z,1.55
2023-01-22T11:42:20.814Z,1.42
2023-01-22T11:44:59.224Z,1.40
2023-01-22T11:47:48.933Z,1.27
2023-01-22T11:50:30.774Z,1.35
2023-01-22T11:53:01.510Z,1.23
2023-01-22T11:55:55.607Z,1.17
2023-01-22T11:58:29.553Z,1.38
2023-01-22T12:01:15.702Z,1.17
2023-01-22T12:04:04.563Z,1.10
2023-01-22T12:06:53.761Z,1.00
2023-01-22T12:09:54.849Z,1.50
2023-01-22T12:12:25.720Z,1.25
2023-01-22T12:15:02.267Z,1.10
2023-01-22T12:17:57.363Z,1.40
2023-01-22T12:20:37.150Z,1.10
2023-01-22T12:23:17.805Z,1.20
2023-01-22T12:25:49.120Z,1.73
2023-01-22T12:28:29.048Z,0.65
2023-01-22T12:31:03.377Z,1.25
2023-01-22T12:33:36.723Z,1.13
2023-01-22T12:36:07.364Z,0.80
2023-01-22T12:38:59.900Z,1.15
2023-01-22T12:41:55.367Z,0.90
2023-01-22T12:44:35.354Z,1.02
2023-01-22T12:47:19.863Z,1.17
2023-01-22T12:52:37.747Z,0.80
2023-01-22T12:55:22.717Z,1.15
2023-01-22T12:57:50.644Z,0.75
2023-01-22T13:00:24.503Z,1.13
2023-01-22T13:02:56.377Z,1.17
2023-01-22T16:21:23.330Z,1.73
2023-01-22T16:23:59.129Z,1.30
2023-01-22T16:26:30.422Z,1.50
2023-01-22T16:29:00.881Z,1.63
2023-01-22T16:31:31.638Z,5.70
2023-01-22T16:34:06.054Z,1.98
2023-01-22T16:36:34.084Z,6.10
2023-01-22T16:39:02.103Z,1.60
2023-01-22T16:41:31.946Z,1.65
2023-01-22T16:44:08.169Z,2.00
2023-01-22T16:46:43.215Z,2.50
2023-01-22T16:49:16.859Z,4.40
2023-01-22T16:51:47.937Z,2.90
2023-01-22T16:54:21.344Z,3.55
2023-01-22T16:56:49.990Z,3.58
2023-01-22T16:59:18.091Z,1.75
2023-01-22T17:01:46.225Z,1.55
2023-01-22T17:04:15.026Z,2.30
2023-01-22T17:06:54.372Z,1.42
2023-01-22T17:09:27.899Z,2.53
2023-01-22T17:12:01.488Z,2.58
2023-01-22T17:14:31.100Z,2.15
2023-01-22T17:16:59.373Z,1.98
2023-01-22T17:19:28.987Z,2.08
2023-01-22T17:22:00.580Z,1.88
2023-01-22T17:24:32.116Z,2.33
2023-01-22T17:27:03.550Z,2.08
2023-01-22T17:29:33.537Z,2.60
2023-01-22T17:32:03.039Z,2.65
2023-01-22T17:34:35.268Z,2.35
2023-01-22T17:37:11.656Z,2.45
2023-01-22T17:39:44.294Z,2.10
2023-01-22T17:42:16.187Z,2.35
2023-01-22T17:44:47.278Z,2.42
2023-01-22T17:47:19.013Z,2.38
2023-01-22T17:49:49.402Z,2.38
2023-01-22T17:52:21.917Z,2.35
2023-01-22T17:54:58.588Z,2.47
2023-01-22T18:00:48.221Z,3.45
2023-01-22T18:03:16.556Z,3.28
2023-01-22T18:05:44.250Z,2.92
2023-01-22T18:08:11.967Z,3.13
2023-01-22T18:10:39.786Z,3.63
2023-01-22T18:13:07.510Z,4.22
2023-01-22T18:15:35.438Z,3.50
2023-01-22T18:18:03.413Z,4.68
2023-01-22T18:20:33.036Z,3.60
2023-01-22T18:23:02.108Z,3.42
2023-01-22T18:25:29.989Z,4.05
2023-01-22T18:27:57.752Z,4.70
2023-01-22T18:30:26.929Z,6.05
2023-01-22T18:32:54.707Z,5.65
2023-01-22T18:35:22.440Z,5.03
2023-01-22T18:37:52.296Z,5.75
2023-01-22T18:40:20.044Z,5.35
2023-01-22T18:42:48.214Z,5.53
2023-01-22T18:45:17.053Z,4.82
2023-01-22T18:47:44.894Z,4.90
2023-01-22T18:50:16.710Z,4.93
2023-01-22T18:52:44.917Z,5.35
2023-01-22T18:55:12.985Z,5.60
2023-01-22T18:58:29.930Z,4.90
2023-01-22T19:01:28.277Z,5.75
2023-01-22T19:03:59.050Z,5.60
2023-01-22T19:06:29.974Z,5.90
2023-01-22T19:09:02.723Z,5.70
2023-01-22T19:11:34.117Z,5.65
2023-01-22T19:14:03.323Z,5.72
2023-01-22T19:16:33.445Z,5.90
2023-01-22T19:19:04.105Z,5.95
2023-01-22T19:21:31.996Z,6.15
2023-01-22T19:24:01.914Z,6.05
2023-01-22T19:26:31.904Z,5.20
2023-01-22T19:29:02.249Z,4.68
2023-01-22T19:31:35.752Z,4.65
2023-01-22T19:34:04.505Z,5.43
2023-01-22T19:36:34.455Z,6.00
2023-01-22T19:39:07.077Z,6.13
2023-01-22T19:41:35.720Z,5.57
2023-01-22T19:44:03.816Z,5.60
2023-01-22T19:46:32.109Z,7.40
2023-01-22T19:49:00.482Z,6.20
2023-01-22T19:51:30.739Z,5.32
2023-01-22T19:54:04.229Z,5.50
2023-01-22T19:56:35.599Z,5.10
2023-01-22T19:59:10.547Z,6.18
2023-01-22T20:01:39.446Z,5.65
2023-01-22T20:04:12.086Z,5.43
2023-01-22T20:06:40.529Z,5.57
2023-01-22T20:09:08.360Z,18.60
2023-01-22T20:11:36.211Z,13.10
2023-01-22T20:14:04.072Z,8.77
2023-01-22T20:16:33.228Z,7.88
2023-01-22T20:19:01.134Z,9.60
2023-01-22T20:21:35.570Z,8.88
2023-01-22T20:24:05.518Z,3.60
2023-01-22T20:26:33.697Z,3.75
2023-01-22T20:29:26.491Z,4.35
2023-01-22T20:32:01.307Z,3.67
2023-01-22T20:34:34.285Z,4.00
2023-01-22T20:37:09.427Z,4.25
2023-01-22T20:39:37.919Z,3.42
2023-01-22T20:42:05.989Z,3.47
2023-01-22T20:44:35.070Z,3.50
2023-01-22T20:47:03.051Z,3.80
2023-01-22T20:49:33.148Z,3.58
2023-01-22T20:52:01.478Z,4.20
2023-01-22T20:54:30.099Z,3.78
2023-01-22T20:56:58.022Z,3.92
2023-01-22T20:59:27.446Z,4.68
2023-01-22T21:01:55.354Z,5.20
2023-01-22T21:04:23.604Z,5.72
2023-01-22T21:06:51.500Z,6.05
2023-01-22T21:09:19.399Z,6.55
2023-01-22T21:11:47.410Z,7.28
2023-01-22T21:14:16.938Z,7.13
2023-01-22T21:16:44.910Z,7.00
2023-01-22T21:19:23.710Z,7.22
2023-01-22T21:21:52.841Z,6.53
2023-01-22T21:24:20.819Z,6.50
2023-01-22T21:26:48.678Z,6.53
2023-01-22T21:29:20.343Z,6.88
2023-01-22T21:31:50.288Z,8.52
2023-01-22T21:34:20.792Z,8.85
2023-01-22T21:36:50.246Z,8.73
2023-01-22T21:39:19.804Z,8.23
2023-01-22T21:41:48.454Z,8.70
2023-01-22T21:44:37.917Z,7.55
2023-01-22T21:47:08.740Z,7.38
2023-01-22T21:49:36.631Z,8.30
2023-01-22T21:52:06.431Z,9.15
2023-01-22T21:54:37.187Z,9.25
2023-01-22T21:57:05.842Z,10.90
2023-01-22T21:59:33.881Z,14.27
2023-01-22T22:02:01.761Z,14.98
2023-01-22T22:04:29.911Z,8.13
2023-01-22T22:06:57.978Z,8.82
2023-01-22T22:09:28.217Z,7.22
2023-01-22T22:11:58.100Z,8.23
2023-01-22T22:14:26.766Z,8.05
2023-01-22T22:16:55.298Z,7.82
2023-01-22T22:19:24.460Z,8.25
2023-01-22T22:21:52.548Z,7.43
2023-01-22T22:24:21.268Z,10.15
2023-01-22T22:26:49.290Z,9.02
2023-01-22T22:29:17.166Z,9.57
2023-01-22T22:31:45.133Z,9.27
2023-01-22T22:34:13.094Z,8.25
2023-01-22T22:36:40.952Z,8.65
2023-01-22T22:39:08.825Z,8.07
2023-01-22T22:41:38.672Z,8.05
2023-01-22T22:44:07.139Z,7.57
2023-01-22T22:46:37.938Z,6.60
2023-01-22T22:49:06.656Z,6.82
2023-01-22T22:51:39.848Z,6.93
2023-01-22T22:54:16.222Z,6.90
2023-01-22T22:56:45.782Z,6.72
2023-01-22T22:59:14.809Z,6.03
2023-01-22T23:01:42.691Z,6.53
2023-01-22T23:04:11.843Z,6.90
2023-01-22T23:06:42.801Z,7.57
2023-01-22T23:09:19.933Z,9.32
2023-01-22T23:11:51.696Z,9.93
2023-01-22T23:14:19.720Z,10.48
2023-01-22T23:16:47.905Z,9.93
2023-01-22T23:19:21.029Z,10.20
2023-01-22T23:22:00.030Z,8.90
2023-01-22T23:24:28.719Z,8.73
2023-01-22T23:26:57.185Z,8.07
2023-01-22T23:29:27.053Z,7.65
2023-01-22T23:31:56.216Z,7.47
2023-01-22T23:34:24.259Z,7.50
2023-01-22T23:36:52.158Z,8.73
2023-01-22T23:39:21.443Z,9.13
2023-01-22T23:41:49.838Z,8.02
2023-01-22T23:44:17.811Z,7.85
2023-01-22T23:46:45.952Z,8.00
2023-01-22T23:49:13.944Z,8.40
2023-01-22T23:51:43.703Z,7.40
2023-01-22T23:54:11.651Z,7.55
2023-01-22T23:56:39.460Z,8.05
2023-01-22T23:59:07.224Z,7.13
